sensor_id;sensor_type;location;lat;lon;timestamp;pressure;altitude;pressure_sealevel;temperature;humidity
71964;BME280;59834;52.124;5.422;2024-02-26T00:00:30;100027.88;;;4.47;100.00
71964;BME280;59834;52.124;5.422;2024-02-26T00:02:57;100035.66;;;4.47;100.00
71964;BME280;59834;52.124;5.422;2024-02-26T00:05:24;100044.50;;;4.43;100.00
71964;BME280;59834;52.124;5.422;2024-02-26T00:07:50;100041.28;;;4.38;100.00
71964;BME280;59834;52.124;5.422;2024-02-26T00:10:17;100048.25;;;4.37;100.00
71964;BME280;59834;52.124;5.422;2024-02-26T00:12:43;100047.47;;;4.35;100.00
71964;BME280;59834;52.124;5.422;2024-02-26T00:15:10;100053.66;;;4.33;100.00
71964;BME280;59834;52.124;5.422;2024-02-26T00:17:37;100049.31;;;4.33;100.00
71964;BME280;59834;52.124;5.422;2024-02-26T00:20:04;100049.47;;;4.30;100.00
71964;BME280;59834;52.124;5.422;2024-02-26T00:22:35;100048.53;;;4.31;100.00
71964;BME280;59834;52.124;5.422;2024-02-26T00:25:02;100055.47;;;4.31;100.00
71964;BME280;59834;52.124;5.422;2024-02-26T00:27:28;100056.41;;;4.30;100.00
71964;BME280;59834;52.124;5.422;2024-02-26T00:29:55;100053.13;;;4.26;100.00
71964;BME280;59834;52.124;5.422;2024-02-26T00:32:22;100057.44;;;4.25;100.00
71964;BME280;59834;52.124;5.422;2024-02-26T00:34:48;100055.78;;;4.24;100.00
71964;BME280;59834;52.124;5.422;2024-02-26T00:37:15;100050.75;;;4.21;100.00
71964;BME280;59834;52.124;5.422;2024-02-26T00:39:41;100056.91;;;4.19;100.00
71964;BME280;59834;52.124;5.422;2024-02-26T00:42:08;100049.38;;;4.14;100.00
71964;BME280;59834;52.124;5.422;2024-02-26T00:44:34;100053.78;;;4.12;100.00
71964;BME280;59834;52.124;5.422;2024-02-26T00:47:01;100052.06;;;4.13;100.00
71964;BME280;59834;52.124;5.422;2024-02-26T00:49:28;100054.56;;;4.14;100.00
71964;BME280;59834;52.124;5.422;2024-02-26T00:51:55;100052.25;;;4.08;100.00
71964;BME280;59834;52.124;5.422;2024-02-26T00:54:22;100057.53;;;4.07;100.00
71964;BME280;59834;52.124;5.422;2024-02-26T00:56:49;100057.53;;;4.07;100.00
71964;BME280;59834;52.124;5.422;2024-02-26T00:59:16;100054.78;;;4.10;100.00
71964;BME280;59834;52.124;5.422;2024-02-26T01:01:42;100055.00;;;4.05;100.00
71964;BME280;59834;52.124;5.422;2024-02-26T01:04:09;100055.00;;;4.05;100.00
71964;BME280;59834;52.124;5.422;2024-02-26T01:06:35;100055.00;;;4.05;100.00
71964;BME280;59834;52.124;5.422;2024-02-26T01:09:02;100059.19;;;4.08;100.00
71964;BME280;59834;52.124;5.422;2024-02-26T01:11:29;100055.84;;;4.06;100.00
71964;BME280;59834;52.124;5.422;2024-02-26T01:13:56;100047.22;;;4.05;100.00
71964;BME280;59834;52.124;5.422;2024-02-26T01:16:23;100047.19;;;4.07;100.00
71964;BME280;59834;52.124;5.422;2024-02-26T01:18:50;100049.75;;;4.07;100.00
71964;BME280;59834;52.124;5.422;2024-02-26T01:21:16;100052.50;;;4.04;100.00
71964;BME280;59834;52.124;5.422;2024-02-26T01:23:43;100043.66;;;4.08;100.00
71964;BME280;59834;52.124;5.422;2024-02-26T01:26:10;100048.69;;;4.11;100.00
71964;BME280;59834;52.124;5.422;2024-02-26T01:28:37;100049.38;;;4.14;100.00
71964;BME280;59834;52.124;5.422;2024-02-26T01:31:03;100041.69;;;4.13;100.00
71964;BME280;59834;52.124;5.422;2024-02-26T01:33:33;100044.34;;;4.11;100.00
71964;BME280;59834;52.124;5.422;2024-02-26T01:36:00;100046.00;;;4.12;100.00
71964;BME280;59834;52.124;5.422;2024-02-26T01:38:27;100033.94;;;4.13;100.00
71964;BME280;59834;52.124;5.422;2024-02-26T01:40:54;100036.66;;;4.10;100.00
71964;BME280;59834;52.124;5.422;2024-02-26T01:43:21;100040.84;;;4.12;100.00
71964;BME280;59834;52.124;5.422;2024-02-26T01:45:47;100046.00;;;4.12;100.00
71964;BME280;59834;52.124;5.422;2024-02-26T01:48:14;100043.41;;;4.12;100.00
71964;BME280;59834;52.124;5.422;2024-02-26T01:50:41;100046.00;;;4.12;100.00
71964;BME280;59834;52.124;5.422;2024-02-26T01:53:08;100038.25;;;4.12;100.00
71964;BME280;59834;52.124;5.422;2024-02-26T01:55:35;100040.00;;;4.12;100.00
71964;BME280;59834;52.124;5.422;2024-02-26T01:58:02;100052.91;;;4.13;100.00
71964;BME280;59834;52.124;5.422;2024-02-26T02:00:29;100057.16;;;4.14;100.00
71964;BME280;59834;52.124;5.422;2024-02-26T02:02:56;100059.59;;;4.17;100.00
71964;BME280;59834;52.124;5.422;2024-02-26T02:05:23;100057.94;;;4.16;100.00
71964;BME280;59834;52.124;5.422;2024-02-26T02:07:51;100057.00;;;4.17;100.00
71964;BME280;59834;52.124;5.422;2024-02-26T02:10:19;100057.94;;;4.16;100.00
71964;BME280;59834;52.124;5.422;2024-02-26T02:12:49;100062.97;;;4.19;100.00
71964;BME280;59834;52.124;5.422;2024-02-26T02:15:16;100056.69;;;4.23;100.00
71964;BME280;59834;52.124;5.422;2024-02-26T02:17:43;100062.78;;;4.22;100.00
71964;BME280;59834;52.124;5.422;2024-02-26T02:20:15;100071.16;;;4.28;100.00
71964;BME280;59834;52.124;5.422;2024-02-26T02:22:44;100076.50;;;4.24;100.00
71964;BME280;59834;52.124;5.422;2024-02-26T02:25:11;100072.25;;;4.23;100.00
71964;BME280;59834;52.124;5.422;2024-02-26T02:27:37;100075.56;;;4.25;100.00
71964;BME280;59834;52.124;5.422;2024-02-26T02:30:05;100077.44;;;4.23;100.00
71964;BME280;59834;52.124;5.422;2024-02-26T02:32:33;100076.44;;;4.26;100.00
71964;BME280;59834;52.124;5.422;2024-02-26T02:35:00;100072.09;;;4.27;100.00
71964;BME280;59834;52.124;5.422;2024-02-26T02:37:26;100083.19;;;4.29;100.00
71964;BME280;59834;52.124;5.422;2024-02-26T02:39:53;100078.84;;;4.29;100.00
71964;BME280;59834;52.124;5.422;2024-02-26T02:42:21;100089.31;;;4.28;100.00
71964;BME280;59834;52.124;5.422;2024-02-26T02:44:48;100090.97;;;4.29;100.00
71964;BME280;59834;52.124;5.422;2024-02-26T02:47:14;100097.91;;;4.28;100.00
71964;BME280;59834;52.124;5.422;2024-02-26T02:49:41;100107.34;;;4.29;100.00
71964;BME280;59834;52.124;5.422;2024-02-26T02:52:08;100101.34;;;4.29;100.00
71964;BME280;59834;52.124;5.422;2024-02-26T02:54:34;100098.75;;;4.29;100.00
71964;BME280;59834;52.124;5.422;2024-02-26T02:57:03;100095.25;;;4.30;100.00
71964;BME280;59834;52.124;5.422;2024-02-26T02:59:29;100109.88;;;4.31;100.00
71964;BME280;59834;52.124;5.422;2024-02-26T03:01:56;100108.97;;;4.32;100.00
71964;BME280;59834;52.124;5.422;2024-02-26T03:04:22;100113.31;;;4.31;100.00
71964;BME280;59834;52.124;5.422;2024-02-26T03:06:50;100106.47;;;4.30;100.00
71964;BME280;59834;52.124;5.422;2024-02-26T03:09:17;100113.31;;;4.31;100.00
71964;BME280;59834;52.124;5.422;2024-02-26T03:11:43;100123.66;;;4.31;100.00
71964;BME280;59834;52.124;5.422;2024-02-26T03:14:10;100135.00;;;4.29;100.00
71964;BME280;59834;52.124;5.422;2024-02-26T03:16:37;100137.59;;;4.29;100.00
71964;BME280;59834;52.124;5.422;2024-02-26T03:19:03;100143.72;;;4.28;100.00
71964;BME280;59834;52.124;5.422;2024-02-26T03:21:30;100147.22;;;4.27;100.00
71964;BME280;59834;52.124;5.422;2024-02-26T03:23:57;100141.94;;;4.28;100.00
71964;BME280;59834;52.124;5.422;2024-02-26T03:26:24;100141.19;;;4.26;100.00
71964;BME280;59834;52.124;5.422;2024-02-26T03:28:50;100147.38;;;4.23;100.00
71964;BME280;59834;52.124;5.422;2024-02-26T03:31:17;100147.41;;;4.22;100.00
71964;BME280;59834;52.124;5.422;2024-02-26T03:33:43;100144.00;;;4.21;100.00
71964;BME280;59834;52.124;5.422;2024-02-26T03:36:10;100151.75;;;4.21;100.00
71964;BME280;59834;52.124;5.422;2024-02-26T03:38:37;100158.72;;;4.21;100.00
71964;BME280;59834;52.124;5.422;2024-02-26T03:41:04;100157.09;;;4.18;100.00
71964;BME280;59834;52.124;5.422;2024-02-26T03:43:30;100144.16;;;4.18;100.00
71964;BME280;59834;52.124;5.422;2024-02-26T03:45:58;100158.00;;;4.17;100.00
71964;BME280;59834;52.124;5.422;2024-02-26T03:48:24;100153.63;;;4.19;100.00
71964;BME280;59834;52.124;5.422;2024-02-26T03:50:51;100165.69;;;4.19;100.00
71964;BME280;59834;52.124;5.422;2024-02-26T03:53:17;100164.88;;;4.18;100.00
71964;BME280;59834;52.124;5.422;2024-02-26T03:55:44;100158.84;;;4.18;100.00
71964;BME280;59834;52.124;5.422;2024-02-26T03:58:12;100155.50;;;4.16;100.00
71964;BME280;59834;52.124;5.422;2024-02-26T04:00:39;100165.88;;;4.16;100.00
71964;BME280;59834;52.124;5.422;2024-02-26T04:03:05;100161.53;;;4.16;100.00
71964;BME280;59834;52.124;5.422;2024-02-26T04:05:32;100162.41;;;4.15;100.00
71964;BME280;59834;52.124;5.422;2024-02-26T04:07:58;100158.94;;;4.16;100.00
71964;BME280;59834;52.124;5.422;2024-02-26T04:10:25;100161.53;;;4.16;100.00
71964;BME280;59834;52.124;5.422;2024-02-26T04:12:51;100171.09;;;4.14;100.00
71964;BME280;59834;52.124;5.422;2024-02-26T04:15:18;100171.09;;;4.14;100.00
71964;BME280;59834;52.124;5.422;2024-02-26T04:17:44;100175.38;;;4.15;100.00
71964;BME280;59834;52.124;5.422;2024-02-26T04:20:14;100173.69;;;4.14;100.00
71964;BME280;59834;52.124;5.422;2024-02-26T04:22:41;100170.13;;;4.17;100.00
71964;BME280;59834;52.124;5.422;2024-02-26T04:25:08;100170.97;;;4.17;100.00
71964;BME280;59834;52.124;5.422;2024-02-26T04:27:34;100177.81;;;4.18;100.00
71964;BME280;59834;52.124;5.422;2024-02-26T04:30:01;100186.59;;;4.16;100.00
71964;BME280;59834;52.124;5.422;2024-02-26T04:32:28;100184.69;;;4.19;100.00
71964;BME280;59834;52.124;5.422;2024-02-26T04:34:55;100188.13;;;4.20;100.00
71964;BME280;59834;52.124;5.422;2024-02-26T04:37:21;100184.47;;;4.24;100.00
71964;BME280;59834;52.124;5.422;2024-02-26T04:39:48;100194.97;;;4.21;100.00
71964;BME280;59834;52.124;5.422;2024-02-26T04:42:16;100195.81;;;4.21;100.00
71964;BME280;59834;52.124;5.422;2024-02-26T04:44:43;100194.13;;;4.20;100.00
71964;BME280;59834;52.124;5.422;2024-02-26T04:47:09;100191.47;;;4.22;100.00
71964;BME280;59834;52.124;5.422;2024-02-26T04:49:37;100193.91;;;4.25;100.00
71964;BME280;59834;52.124;5.422;2024-02-26T04:52:04;100191.47;;;4.22;100.00
71964;BME280;59834;52.124;5.422;2024-02-26T04:54:31;100191.47;;;4.22;100.00
71964;BME280;59834;52.124;5.422;2024-02-26T04:56:57;100192.22;;;4.24;100.00
71964;BME280;59834;52.124;5.422;2024-02-26T04:59:24;100197.31;;;4.25;100.00
71964;BME280;59834;52.124;5.422;2024-02-26T05:01:50;100200.78;;;4.26;100.00
71964;BME280;59834;52.124;5.422;2024-02-26T05:04:19;100203.16;;;4.31;100.00
71964;BME280;59834;52.124;5.422;2024-02-26T05:06:46;100198.03;;;4.29;100.00
71964;BME280;59834;52.124;5.422;2024-02-26T05:09:12;100209.25;;;4.30;100.00
71964;BME280;59834;52.124;5.422;2024-02-26T05:11:39;100211.91;;;4.28;100.00
71964;BME280;59834;52.124;5.422;2024-02-26T05:14:08;100212.81;;;4.27;100.00
71964;BME280;59834;52.124;5.422;2024-02-26T05:16:35;100211.84;;;4.30;100.00
71964;BME280;59834;52.124;5.422;2024-02-26T05:19:02;100211.69;;;4.33;100.00
71964;BME280;59834;52.124;5.422;2024-02-26T05:21:29;100215.03;;;4.35;100.00
71964;BME280;59834;52.124;5.422;2024-02-26T05:23:56;100211.69;;;4.33;100.00
71964;BME280;59834;52.124;5.422;2024-02-26T05:26:23;100213.38;;;4.34;100.00
71964;BME280;59834;52.124;5.422;2024-02-26T05:28:50;100218.59;;;4.32;100.00
71964;BME280;59834;52.124;5.422;2024-02-26T05:31:17;100212.69;;;4.30;100.00
71964;BME280;59834;52.124;5.422;2024-02-26T05:33:44;100224.66;;;4.33;100.00
71964;BME280;59834;52.124;5.422;2024-02-26T05:36:18;100223.72;;;4.34;100.00
71964;BME280;59834;52.124;5.422;2024-02-26T05:38:45;100230.53;;;4.36;100.00
71964;BME280;59834;52.124;5.422;2024-02-26T05:41:16;100231.50;;;4.34;100.00
71964;BME280;59834;52.124;5.422;2024-02-26T05:43:46;100228.00;;;4.35;100.00
71964;BME280;59834;52.124;5.422;2024-02-26T05:46:13;100236.69;;;4.34;100.00
71964;BME280;59834;52.124;5.422;2024-02-26T05:48:39;100241.78;;;4.35;100.00
71964;BME280;59834;52.124;5.422;2024-02-26T05:51:06;100235.16;;;4.30;100.00
71964;BME280;59834;52.124;5.422;2024-02-26T05:53:33;100239.56;;;4.28;100.00
71964;BME280;59834;52.124;5.422;2024-02-26T05:56:00;100237.88;;;4.27;100.00
71964;BME280;59834;52.124;5.422;2024-02-26T05:58:26;100246.63;;;4.24;100.00
71964;BME280;59834;52.124;5.422;2024-02-26T06:00:53;100255.09;;;4.28;100.00
71964;BME280;59834;52.124;5.422;2024-02-26T06:03:19;100258.38;;;4.31;100.00
71964;BME280;59834;52.124;5.422;2024-02-26T06:05:46;100256.63;;;4.32;100.00
71964;BME280;59834;52.124;5.422;2024-02-26T06:08:13;100265.31;;;4.31;100.00
71964;BME280;59834;52.124;5.422;2024-02-26T06:10:40;100257.56;;;4.31;100.00
71964;BME280;59834;52.124;5.422;2024-02-26T06:13:06;100251.59;;;4.29;100.00
71964;BME280;59834;52.124;5.422;2024-02-26T06:15:33;100259.31;;;4.30;100.00
71964;BME280;59834;52.124;5.422;2024-02-26T06:18:00;100268.75;;;4.31;100.00
71964;BME280;59834;52.124;5.422;2024-02-26T06:20:26;100270.50;;;4.31;100.00
71964;BME280;59834;52.124;5.422;2024-02-26T06:22:53;100279.13;;;4.31;100.00
71964;BME280;59834;52.124;5.422;2024-02-26T06:25:19;100278.13;;;4.34;100.00
71964;BME280;59834;52.124;5.422;2024-02-26T06:27:46;100281.66;;;4.33;100.00
71964;BME280;59834;52.124;5.422;2024-02-26T06:30:13;100270.97;;;4.39;100.00
71964;BME280;59834;52.124;5.422;2024-02-26T06:32:39;100283.72;;;4.43;100.00
71964;BME280;59834;52.124;5.422;2024-02-26T06:35:07;100284.72;;;4.41;100.00
71964;BME280;59834;52.124;5.422;2024-02-26T06:37:35;100286.53;;;4.39;100.00
71964;BME280;59834;52.124;5.422;2024-02-26T06:40:03;100290.88;;;4.38;100.00
71964;BME280;59834;52.124;5.422;2024-02-26T06:42:30;100294.38;;;4.37;100.00
71964;BME280;59834;52.124;5.422;2024-02-26T06:44:57;100298.72;;;4.37;100.00
71964;BME280;59834;52.124;5.422;2024-02-26T06:47:24;100298.78;;;4.35;100.00
71964;BME280;59834;52.124;5.422;2024-02-26T06:49:52;100300.41;;;4.38;100.00
71964;BME280;59834;52.124;5.422;2024-02-26T06:52:19;100296.88;;;4.39;100.00
71964;BME280;59834;52.124;5.422;2024-02-26T06:54:45;100312.28;;;4.42;100.00
71964;BME280;59834;52.124;5.422;2024-02-26T06:57:14;100308.81;;;4.43;100.00
71964;BME280;59834;52.124;5.422;2024-02-26T06:59:41;100314.88;;;4.42;100.00
71964;BME280;59834;52.124;5.422;2024-02-26T07:02:13;100312.28;;;4.42;100.00
71964;BME280;59834;52.124;5.422;2024-02-26T07:04:41;100327.84;;;4.42;100.00
71964;BME280;59834;52.124;5.422;2024-02-26T07:07:08;100324.50;;;4.40;100.00
71964;BME280;59834;52.124;5.422;2024-02-26T07:09:35;100333.03;;;4.42;100.00
71964;BME280;59834;52.124;5.422;2024-02-26T07:12:01;100330.28;;;4.45;100.00
71964;BME280;59834;52.124;5.422;2024-02-26T07:14:28;100332.88;;;4.45;100.00
71964;BME280;59834;52.124;5.422;2024-02-26T07:16:55;100342.41;;;4.44;100.00
71964;BME280;59834;52.124;5.422;2024-02-26T07:19:22;100349.34;;;4.44;100.00
71964;BME280;59834;52.124;5.422;2024-02-26T07:21:49;100351.84;;;4.45;100.00
71964;BME280;59834;52.124;5.422;2024-02-26T07:24:16;100348.44;;;4.45;100.00
71964;BME280;59834;52.124;5.422;2024-02-26T07:26:43;100345.00;;;4.44;100.00
71964;BME280;59834;52.124;5.422;2024-02-26T07:29:09;100360.34;;;4.49;100.00
71964;BME280;59834;52.124;5.422;2024-02-26T07:31:36;100354.03;;;4.55;100.00
71964;BME280;59834;52.124;5.422;2024-02-26T07:34:03;100361.13;;;4.51;100.00
71964;BME280;59834;52.124;5.422;2024-02-26T07:36:30;100360.19;;;4.52;100.00
71964;BME280;59834;52.124;5.422;2024-02-26T07:38:57;100370.56;;;4.52;100.00
71964;BME280;59834;52.124;5.422;2024-02-26T07:41:23;100355.72;;;4.56;100.00
71964;BME280;59834;52.124;5.422;2024-02-26T07:43:50;100360.13;;;4.54;100.00
71964;BME280;59834;52.124;5.422;2024-02-26T07:46:17;100362.88;;;4.51;100.00
71964;BME280;59834;52.124;5.422;2024-02-26T07:48:44;100365.25;;;4.55;100.00
71964;BME280;59834;52.124;5.422;2024-02-26T07:51:14;100374.78;;;4.55;100.00
71964;BME280;59834;52.124;5.422;2024-02-26T07:53:41;100378.19;;;4.55;100.00
71964;BME280;59834;52.124;5.422;2024-02-26T07:56:08;100398.19;;;4.53;100.00
71964;BME280;59834;52.124;5.422;2024-02-26T07:58:35;100388.69;;;4.52;100.00
71964;BME280;59834;52.124;5.422;2024-02-26T08:01:02;100397.41;;;4.51;100.00
71964;BME280;59834;52.124;5.422;2024-02-26T08:03:28;100399.06;;;4.52;100.00
71964;BME280;59834;52.124;5.422;2024-02-26T08:05:55;100402.34;;;4.56;100.00
71964;BME280;59834;52.124;5.422;2024-02-26T08:08:23;100407.53;;;4.56;100.00
71964;BME280;59834;52.124;5.422;2024-02-26T08:10:50;100402.31;;;4.57;100.00
71964;BME280;59834;52.124;5.422;2024-02-26T08:13:16;100397.03;;;4.59;100.00
71964;BME280;59834;52.124;5.422;2024-02-26T08:15:43;100409.16;;;4.58;100.00
71964;BME280;59834;52.124;5.422;2024-02-26T08:18:09;100415.03;;;4.62;100.00
71964;BME280;59834;52.124;5.422;2024-02-26T08:20:36;100415.00;;;4.63;100.00
71964;BME280;59834;52.124;5.422;2024-02-26T08:23:04;100422.78;;;4.63;100.00
71964;BME280;59834;52.124;5.422;2024-02-26T08:25:30;100432.31;;;4.63;100.00
71964;BME280;59834;52.124;5.422;2024-02-26T08:27:57;100418.47;;;4.62;100.00
71964;BME280;59834;52.124;5.422;2024-02-26T08:30:24;100427.03;;;4.64;100.00
71964;BME280;59834;52.124;5.422;2024-02-26T08:32:51;100427.03;;;4.64;100.00
71964;BME280;59834;52.124;5.422;2024-02-26T08:35:19;100439.06;;;4.65;100.00
71964;BME280;59834;52.124;5.422;2024-02-26T08:37:47;100433.91;;;4.65;100.00
71964;BME280;59834;52.124;5.422;2024-02-26T08:40:14;100444.25;;;4.65;100.00
71964;BME280;59834;52.124;5.422;2024-02-26T08:42:41;100441.75;;;4.64;100.00
71964;BME280;59834;52.124;5.422;2024-02-26T08:45:08;100444.34;;;4.64;100.00
71964;BME280;59834;52.124;5.422;2024-02-26T08:47:35;100447.63;;;4.67;100.00
71964;BME280;59834;52.124;5.422;2024-02-26T08:50:02;100453.59;;;4.69;100.00
71964;BME280;59834;52.124;5.422;2024-02-26T08:52:29;100456.19;;;4.69;100.00
71964;BME280;59834;52.124;5.422;2024-02-26T08:54:56;100452.75;;;4.69;100.00
71964;BME280;59834;52.124;5.422;2024-02-26T08:57:24;100459.69;;;4.68;100.00
71964;BME280;59834;52.124;5.422;2024-02-26T08:59:53;100452.81;;;4.67;100.00
71964;BME280;59834;52.124;5.422;2024-02-26T09:02:20;100474.34;;;4.69;100.00
71964;BME280;59834;52.124;5.422;2024-02-26T09:04:47;100476.06;;;4.69;100.00
71964;BME280;59834;52.124;5.422;2024-02-26T09:07:13;100461.53;;;4.66;100.00
71964;BME280;59834;52.124;5.422;2024-02-26T09:09:40;100471.88;;;4.66;100.00
71964;BME280;59834;52.124;5.422;2024-02-26T09:12:07;100479.72;;;4.65;100.00
71964;BME280;59834;52.124;5.422;2024-02-26T09:14:34;100477.22;;;4.63;100.00
71964;BME280;59834;52.124;5.422;2024-02-26T09:17:01;100488.34;;;4.65;100.00
71964;BME280;59834;52.124;5.422;2024-02-26T09:19:27;100473.69;;;4.64;100.00
71964;BME280;59834;52.124;5.422;2024-02-26T09:21:54;100480.63;;;4.64;100.00
71964;BME280;59834;52.124;5.422;2024-02-26T09:24:24;100472.91;;;4.62;100.00
71964;BME280;59834;52.124;5.422;2024-02-26T09:26:51;100488.41;;;4.64;100.00
71964;BME280;59834;52.124;5.422;2024-02-26T09:29:18;100501.28;;;4.65;100.00
71964;BME280;59834;52.124;5.422;2024-02-26T09:31:45;100497.81;;;4.66;100.00
71964;BME280;59834;52.124;5.422;2024-02-26T09:34:14;100503.03;;;4.65;100.00
71964;BME280;59834;52.124;5.422;2024-02-26T09:36:40;100493.50;;;4.65;100.00
71964;BME280;59834;52.124;5.422;2024-02-26T09:39:07;100499.53;;;4.66;100.00
71964;BME280;59834;52.124;5.422;2024-02-26T09:41:38;100515.88;;;4.68;100.00
71964;BME280;59834;52.124;5.422;2024-02-26T09:44:06;100519.25;;;4.70;100.00
71964;BME280;59834;52.124;5.422;2024-02-26T09:46:33;100524.44;;;4.70;100.00
71964;BME280;59834;52.124;5.422;2024-02-26T09:49:00;100517.75;;;4.64;100.00
71964;BME280;59834;52.124;5.422;2024-02-26T09:51:27;100521.06;;;4.68;100.00
71964;BME280;59834;52.124;5.422;2024-02-26T09:53:56;100524.50;;;4.68;100.00
71964;BME280;59834;52.124;5.422;2024-02-26T09:56:26;100522.69;;;4.70;100.00
71964;BME280;59834;52.124;5.422;2024-02-26T09:58:53;100526.13;;;4.71;100.00
71964;BME280;59834;52.124;5.422;2024-02-26T10:01:21;100533.06;;;4.70;100.00
71964;BME280;59834;52.124;5.422;2024-02-26T10:03:52;100539.06;;;4.71;100.00
71964;BME280;59834;52.124;5.422;2024-02-26T10:06:21;100538.94;;;4.74;100.00
71964;BME280;59834;52.124;5.422;2024-02-26T10:08:49;100547.56;;;4.75;100.00
71964;BME280;59834;52.124;5.422;2024-02-26T10:11:16;100549.53;;;4.69;100.00
71964;BME280;59834;52.124;5.422;2024-02-26T10:13:43;100546.06;;;4.69;100.00
71964;BME280;59834;52.124;5.422;2024-02-26T10:16:10;100553.72;;;4.72;100.00
71964;BME280;59834;52.124;5.422;2024-02-26T10:18:50;100553.78;;;4.70;100.00
71964;BME280;59834;52.124;5.422;2024-02-26T10:21:25;100557.16;;;4.72;100.00
71964;BME280;59834;52.124;5.422;2024-02-26T10:23:51;100559.75;;;4.72;100.00
71964;BME280;59834;52.124;5.422;2024-02-26T10:26:18;100569.97;;;4.76;100.00
71964;BME280;59834;52.124;5.422;2024-02-26T10:28:45;100576.16;;;4.73;100.00
71964;BME280;59834;52.124;5.422;2024-02-26T10:31:17;100577.00;;;4.73;100.00
71964;BME280;59834;52.124;5.422;2024-02-26T10:33:44;100580.34;;;4.76;100.00
71964;BME280;59834;52.124;5.422;2024-02-26T10:36:11;100578.59;;;4.76;100.00
71964;BME280;59834;52.124;5.422;2024-02-26T10:38:38;100596.63;;;4.79;100.00
71964;BME280;59834;52.124;5.422;2024-02-26T10:41:13;100586.19;;;4.81;100.00
71964;BME280;59834;52.124;5.422;2024-02-26T10:43:42;100600.69;;;4.85;100.00
71964;BME280;59834;52.124;5.422;2024-02-26T10:46:08;100595.38;;;4.88;100.00
71964;BME280;59834;52.124;5.422;2024-02-26T10:48:36;100609.13;;;4.90;100.00
71964;BME280;59834;52.124;5.422;2024-02-26T10:51:03;100616.13;;;4.88;100.00
71964;BME280;59834;52.124;5.422;2024-02-26T10:53:31;100614.25;;;4.91;100.00
71964;BME280;59834;52.124;5.422;2024-02-26T10:56:02;100613.28;;;4.94;100.00
71964;BME280;59834;52.124;5.422;2024-02-26T10:58:31;100621.91;;;4.94;100.00
71964;BME280;59834;52.124;5.422;2024-02-26T11:00:58;100627.88;;;4.96;100.00
71964;BME280;59834;52.124;5.422;2024-02-26T11:03:26;100628.50;;;5.02;100.00
71964;BME280;59834;52.124;5.422;2024-02-26T11:05:55;100626.59;;;5.05;100.00
71964;BME280;59834;52.124;5.422;2024-02-26T11:08:25;100625.69;;;5.06;100.00
71964;BME280;59834;52.124;5.422;2024-02-26T11:10:55;100636.16;;;5.05;100.00
71964;BME280;59834;52.124;5.422;2024-02-26T11:13:27;100636.00;;;5.08;100.00
71964;BME280;59834;52.124;5.422;2024-02-26T11:15:56;100642.88;;;5.09;100.00
71964;BME280;59834;52.124;5.422;2024-02-26T11:18:27;100650.63;;;5.10;100.00
71964;BME280;59834;52.124;5.422;2024-02-26T11:20:54;100648.84;;;5.11;100.00
71964;BME280;59834;52.124;5.422;2024-02-26T11:23:23;100646.03;;;5.15;100.00
71964;BME280;59834;52.124;5.422;2024-02-26T11:25:52;100653.06;;;5.13;100.00
71964;BME280;59834;52.124;5.422;2024-02-26T11:28:21;100659.28;;;5.09;100.00
71964;BME280;59834;52.124;5.422;2024-02-26T11:30:51;100654.19;;;5.08;100.00
71964;BME280;59834;52.124;5.422;2024-02-26T11:33:20;100668.78;;;5.10;100.00
71964;BME280;59834;52.124;5.422;2024-02-26T11:35:47;100659.41;;;5.06;100.00
71964;BME280;59834;52.124;5.422;2024-02-26T11:38:25;100671.63;;;5.04;100.00
71964;BME280;59834;52.124;5.422;2024-02-26T11:40:53;100672.59;;;5.02;100.00
71964;BME280;59834;52.124;5.422;2024-02-26T11:43:33;100673.50;;;5.01;100.00
71964;BME280;59834;52.124;5.422;2024-02-26T11:46:25;100669.16;;;5.01;100.00
71964;BME280;59834;52.124;5.422;2024-02-26T11:48:55;100683.81;;;5.02;100.00
71964;BME280;59834;52.124;5.422;2024-02-26T11:51:27;100690.69;;;5.03;100.00
71964;BME280;59834;52.124;5.422;2024-02-26T11:53:54;100675.91;;;5.05;100.00
71964;BME280;59834;52.124;5.422;2024-02-26T11:56:24;100682.63;;;5.09;100.00
71964;BME280;59834;52.124;5.422;2024-02-26T11:58:59;100697.94;;;5.15;100.00
71964;BME280;59834;52.124;5.422;2024-02-26T12:07:02;100690.81;;;5.20;100.00
71964;BME280;59834;52.124;5.422;2024-02-26T12:12:06;100708.06;;;5.22;100.00
71964;BME280;59834;52.124;5.422;2024-02-26T12:14:50;100712.28;;;5.24;100.00
71964;BME280;59834;52.124;5.422;2024-02-26T12:17:24;100718.22;;;5.26;100.00
71964;BME280;59834;52.124;5.422;2024-02-26T12:19:51;100716.50;;;5.27;100.00
71964;BME280;59834;52.124;5.422;2024-02-26T12:22:20;100716.50;;;5.27;100.00
71964;BME280;59834;52.124;5.422;2024-02-26T12:24:47;100728.56;;;5.28;100.00
71964;BME280;59834;52.124;5.422;2024-02-26T12:27:13;100712.06;;;5.29;100.00
71964;BME280;59834;52.124;5.422;2024-02-26T12:29:41;100723.38;;;5.28;100.00
71964;BME280;59834;52.124;5.422;2024-02-26T12:32:08;100728.69;;;5.25;100.00
71964;BME280;59834;52.124;5.422;2024-02-26T12:34:35;100732.19;;;5.24;100.00
71964;BME280;59834;52.124;5.422;2024-02-26T12:37:02;100730.38;;;5.26;100.00
71964;BME280;59834;52.124;5.422;2024-02-26T12:39:28;100727.72;;;5.27;100.00
71964;BME280;59834;52.124;5.422;2024-02-26T12:41:57;100731.19;;;5.26;100.00
71964;BME280;59834;52.124;5.422;2024-02-26T12:44:26;100738.84;;;5.29;100.00
71964;BME280;59834;52.124;5.422;2024-02-26T12:47:03;100745.69;;;5.32;100.00
71964;BME280;59834;52.124;5.422;2024-02-26T12:49:31;100749.09;;;5.32;100.00
71964;BME280;59834;52.124;5.422;2024-02-26T12:51:58;100738.81;;;5.31;100.00
71964;BME280;59834;52.124;5.422;2024-02-26T12:54:31;100754.25;;;5.34;100.00
71964;BME280;59834;52.124;5.422;2024-02-26T12:57:01;100752.41;;;5.36;100.00
71964;BME280;59834;52.124;5.422;2024-02-26T12:59:30;100757.59;;;5.36;100.00